Terminal Aerodrome Forecast
Issued by NWS Shreveport, LA

Home | Current Version | Previous Version | Text Only | Print | Product List | Glossary On
Versions: 1 2 3 4 5 6 7 8 9 10 11 12 13 14 15 16 17 18 19 20 21 22 23 24
012
FTUS44 KSHV 230429 AAB
TAFMLU
TAF AMD
KMLU 230429Z 2304/2324 19012G22KT P6SM VCSH BKN020 BKN040 OVC050
      TEMPO 2305/2308 2SM -TSRA BKN020CB
     FM230800 18013G19KT 4SM SHRA BR OVC007
     FM231500 21014G20KT 6SM -SHRA BKN015 OVC025
     FM231800 22014KT P6SM VCTS BKN035CB=

USA.gov is the U.S. government's official web portal to all federal, state and local government web resources and services.